CheckWX is a tool to help pilots better visualize weather data.  It is not intended as a substitute for an official pre-flight weather briefing.

12:20:02 UTC

HTAR METAR
Arusha Airport
Arusha, Tanzania
Current

1 hour ago

HTAR 181100Z 09005KT 9999 FEW030CB BKN032 30/18 Q1014 NOSIG
Observed
Feb-18 @ 11:00 UTC
Wind
  • 090° at 5 KTS
Visibility
10,000+ meters
Flight Rules
VFR
Cloud Levels
  • Few at 3,000' AGL
  • Broken at 3,200' AGL
Temperature
30°C / 86°F
Dewpoint
18°C / 64°F
Humidity
49%
Altimeter
29.94" Hg
Pressure
1013.92 hPa
Previous

2 hours ago

HTAR 181000Z 00000KT 9999 FEW026CB BKN026 29/18 Q1015 NOSIG
Observed
Feb-18 @ 10:00 UTC
Visibility
10,000+ meters
Flight Rules
MVFR
Cloud Levels
  • Few at 2,600' AGL
  • Broken at 2,600' AGL
Temperature
29°C / 84°F
Dewpoint
18°C / 64°F
Humidity
51%
Altimeter
29.97" Hg
Pressure
1014.92 hPa
Previous

3 hours ago

HTAR 180900Z 00000KT 9999 FEW025CB SCT027 28/18 Q1016 NOSIG
Observed
Feb-18 @ 09:00 UTC
Visibility
10,000+ meters
Flight Rules
VFR
Cloud Levels
  • Few at 2,500' AGL
  • Scattered at 2,700' AGL
Temperature
28°C / 82°F
Dewpoint
18°C / 64°F
Humidity
55%
Altimeter
30" Hg
Pressure
1015.92 hPa